sensor_id;sensor_type;location;lat;lon;timestamp;pressure;altitude;pressure_sealevel;temperature;humidity
23446;BME280;11895;48.738;9.320;2023-04-06T00:02:01;99048.34;;;3.42;100.00
23446;BME280;11895;48.738;9.320;2023-04-06T00:04:29;99045.69;;;3.44;100.00
23446;BME280;11895;48.738;9.320;2023-04-06T00:06:57;99048.34;;;3.44;100.00
23446;BME280;11895;48.738;9.320;2023-04-06T00:09:25;99042.91;;;3.50;100.00
23446;BME280;11895;48.738;9.320;2023-04-06T00:11:53;99041.28;;;3.40;100.00
23446;BME280;11895;48.738;9.320;2023-04-06T00:14:20;99036.91;;;3.35;100.00
23446;BME280;11895;48.738;9.320;2023-04-06T00:16:48;99048.50;;;3.31;100.00
23446;BME280;11895;48.738;9.320;2023-04-06T00:19:16;99047.69;;;3.26;100.00
23446;BME280;11895;48.738;9.320;2023-04-06T00:21:43;99042.50;;;3.14;100.00
23446;BME280;11895;48.738;9.320;2023-04-06T00:24:12;99039.06;;;3.07;100.00
23446;BME280;11895;48.738;9.320;2023-04-06T00:26:39;99044.41;;;3.06;100.00
23446;BME280;11895;48.738;9.320;2023-04-06T00:29:07;99040.84;;;3.07;100.00
23446;BME280;11895;48.738;9.320;2023-04-06T00:31:35;99039.09;;;3.06;100.00
23446;BME280;11895;48.738;9.320;2023-04-06T00:34:03;99040.91;;;2.99;100.00
23446;BME280;11895;48.738;9.320;2023-04-06T00:36:31;99035.66;;;2.95;100.00
23446;BME280;11895;48.738;9.320;2023-04-06T00:38:58;99036.56;;;2.95;100.00
23446;BME280;11895;48.738;9.320;2023-04-06T00:41:26;99039.28;;;2.91;100.00
23446;BME280;11895;48.738;9.320;2023-04-06T00:43:54;99034.84;;;2.90;100.00
23446;BME280;11895;48.738;9.320;2023-04-06T00:46:22;99034.88;;;2.85;100.00
23446;BME280;11895;48.738;9.320;2023-04-06T00:48:50;99040.28;;;2.80;100.00
23446;BME280;11895;48.738;9.320;2023-04-06T00:51:18;99046.56;;;2.73;100.00
23446;BME280;11895;48.738;9.320;2023-04-06T00:53:45;99042.13;;;2.74;100.00
23446;BME280;11895;48.738;9.320;2023-04-06T00:56:14;99039.50;;;2.72;100.00
23446;BME280;11895;48.738;9.320;2023-04-06T00:58:50;99035.91;;;2.76;100.00
23446;BME280;11895;48.738;9.320;2023-04-06T01:01:18;99032.38;;;2.76;100.00
23446;BME280;11895;48.738;9.320;2023-04-06T01:03:53;99032.44;;;2.68;100.00
23446;BME280;11895;48.738;9.320;2023-04-06T01:06:21;99025.25;;;2.76;100.00
23446;BME280;11895;48.738;9.320;2023-04-06T01:08:57;99017.28;;;2.76;100.00
23446;BME280;11895;48.738;9.320;2023-04-06T01:11:27;99021.78;;;2.71;100.00
23446;BME280;11895;48.738;9.320;2023-04-06T01:13:55;99018.22;;;2.72;100.00
23446;BME280;11895;48.738;9.320;2023-04-06T01:16:26;99016.38;;;2.77;100.00
23446;BME280;11895;48.738;9.320;2023-04-06T01:19:09;99020.03;;;2.67;100.00
23446;BME280;11895;48.738;9.320;2023-04-06T01:21:47;99016.59;;;2.59;100.00
23446;BME280;11895;48.738;9.320;2023-04-06T01:24:20;99017.56;;;2.52;100.00
23446;BME280;11895;48.738;9.320;2023-04-06T01:27:17;99023.66;;;2.60;100.00
23446;BME280;11895;48.738;9.320;2023-04-06T01:30:08;99014.84;;;2.58;100.00
23446;BME280;11895;48.738;9.320;2023-04-06T01:33:02;99016.75;;;2.47;100.00
23446;BME280;11895;48.738;9.320;2023-04-06T01:35:40;99013.13;;;2.51;100.00
23446;BME280;11895;48.738;9.320;2023-04-06T01:38:13;99016.84;;;2.38;100.00
23446;BME280;11895;48.738;9.320;2023-04-06T01:40:40;99015.03;;;2.37;100.00
23446;BME280;11895;48.738;9.320;2023-04-06T01:43:14;99004.47;;;2.30;100.00
23446;BME280;11895;48.738;9.320;2023-04-06T01:45:58;99011.63;;;2.25;100.00
23446;BME280;11895;48.738;9.320;2023-04-06T01:48:33;98999.25;;;2.24;100.00
23446;BME280;11895;48.738;9.320;2023-04-06T01:51:07;99005.31;;;2.36;100.00
23446;BME280;11895;48.738;9.320;2023-04-06T01:53:44;99008.22;;;2.11;100.00
23446;BME280;11895;48.738;9.320;2023-04-06T01:56:12;99003.78;;;2.13;100.00
23446;BME280;11895;48.738;9.320;2023-04-06T01:58:46;99004.63;;;2.18;100.00
23446;BME280;11895;48.738;9.320;2023-04-06T02:01:16;99001.97;;;2.17;100.00
23446;BME280;11895;48.738;9.320;2023-04-06T02:03:52;99006.56;;;1.98;100.00
23446;BME280;11895;48.738;9.320;2023-04-06T02:06:21;99005.59;;;2.06;100.00
23446;BME280;11895;48.738;9.320;2023-04-06T02:08:49;99000.34;;;2.00;100.00
23446;BME280;11895;48.738;9.320;2023-04-06T02:11:17;99010.19;;;1.88;100.00
23446;BME280;11895;48.738;9.320;2023-04-06T02:13:50;99003.22;;;1.77;100.00
23446;BME280;11895;48.738;9.320;2023-04-06T02:16:18;99005.00;;;1.75;100.00
23446;BME280;11895;48.738;9.320;2023-04-06T02:18:46;98996.13;;;1.76;100.00
23446;BME280;11895;48.738;9.320;2023-04-06T02:21:14;99000.50;;;1.84;100.00
23446;BME280;11895;48.738;9.320;2023-04-06T02:23:47;99010.19;;;1.88;100.00
23446;BME280;11895;48.738;9.320;2023-04-06T02:26:17;99004.03;;;1.86;100.00
23446;BME280;11895;48.738;9.320;2023-04-06T02:28:45;99003.41;;;1.51;100.00
23446;BME280;11895;48.738;9.320;2023-04-06T02:31:13;98997.16;;;1.62;100.00
23446;BME280;11895;48.738;9.320;2023-04-06T02:33:44;99001.66;;;1.49;100.00
23446;BME280;11895;48.738;9.320;2023-04-06T02:36:14;99007.00;;;1.46;100.00
23446;BME280;11895;48.738;9.320;2023-04-06T02:38:42;99000.81;;;1.42;100.00
23446;BME280;11895;48.738;9.320;2023-04-06T02:41:10;98996.34;;;1.52;100.00
23446;BME280;11895;48.738;9.320;2023-04-06T02:43:39;98999.81;;;1.62;100.00
23446;BME280;11895;48.738;9.320;2023-04-06T02:46:15;98993.56;;;1.67;100.00
23446;BME280;11895;48.738;9.320;2023-04-06T02:48:42;98989.16;;;1.65;100.00
23446;BME280;11895;48.738;9.320;2023-04-06T02:51:10;98995.50;;;1.45;100.00
23446;BME280;11895;48.738;9.320;2023-04-06T02:53:40;98995.53;;;1.39;100.00
23446;BME280;11895;48.738;9.320;2023-04-06T02:56:07;98987.69;;;1.22;100.00
23446;BME280;11895;48.738;9.320;2023-04-06T02:58:43;98988.59;;;1.20;100.00
23446;BME280;11895;48.738;9.320;2023-04-06T03:01:11;98991.31;;;1.06;100.00
23446;BME280;11895;48.738;9.320;2023-04-06T03:03:41;98990.41;;;1.16;100.00
23446;BME280;11895;48.738;9.320;2023-04-06T03:06:18;98989.47;;;1.19;100.00
23446;BME280;11895;48.738;9.320;2023-04-06T03:08:47;98993.88;;;1.24;100.00
23446;BME280;11895;48.738;9.320;2023-04-06T03:11:15;98989.41;;;1.33;100.00
23446;BME280;11895;48.738;9.320;2023-04-06T03:13:44;98988.47;;;1.35;100.00
23446;BME280;11895;48.738;9.320;2023-04-06T03:16:12;98992.91;;;1.35;100.00
23446;BME280;11895;48.738;9.320;2023-04-06T03:18:40;98982.25;;;1.39;100.00
23446;BME280;11895;48.738;9.320;2023-04-06T03:21:10;98991.09;;;1.43;100.00
23446;BME280;11895;48.738;9.320;2023-04-06T03:23:48;98991.94;;;1.45;100.00
23446;BME280;11895;48.738;9.320;2023-04-06T03:26:18;98991.13;;;1.37;100.00
23446;BME280;11895;48.738;9.320;2023-04-06T03:28:46;98997.28;;;1.43;100.00
23446;BME280;11895;48.738;9.320;2023-04-06T03:31:15;98992.94;;;1.32;100.00
23446;BME280;11895;48.738;9.320;2023-04-06T03:33:55;98993.78;;;1.38;100.00
23446;BME280;11895;48.738;9.320;2023-04-06T03:36:27;99002.75;;;1.16;100.00
23446;BME280;11895;48.738;9.320;2023-04-06T03:38:57;98998.25;;;1.28;100.00
23446;BME280;11895;48.738;9.320;2023-04-06T03:41:24;99005.47;;;1.08;100.00
23446;BME280;11895;48.738;9.320;2023-04-06T03:44:14;98999.19;;;1.23;100.00
23446;BME280;11895;48.738;9.320;2023-04-06T03:46:44;99007.28;;;1.00;100.00
23446;BME280;11895;48.738;9.320;2023-04-06T03:49:12;99002.00;;;0.97;100.00
23446;BME280;11895;48.738;9.320;2023-04-06T03:51:43;99014.44;;;0.83;100.00
23446;BME280;11895;48.738;9.320;2023-04-06T03:54:11;99005.56;;;0.90;100.00
23446;BME280;11895;48.738;9.320;2023-04-06T03:56:38;99013.50;;;0.97;100.00
23446;BME280;11895;48.738;9.320;2023-04-06T03:59:06;99016.09;;;1.05;100.00
23446;BME280;11895;48.738;9.320;2023-04-06T04:01:34;99027.69;;;0.87;100.00
23446;BME280;11895;48.738;9.320;2023-04-06T04:04:02;99018.78;;;0.96;100.00
23446;BME280;11895;48.738;9.320;2023-04-06T04:06:31;99011.72;;;0.95;100.00
23446;BME280;11895;48.738;9.320;2023-04-06T04:08:59;99020.59;;;0.86;100.00
23446;BME280;11895;48.738;9.320;2023-04-06T04:11:27;99021.50;;;0.88;100.00
23446;BME280;11895;48.738;9.320;2023-04-06T04:13:58;99019.69;;;0.92;100.00
23446;BME280;11895;48.738;9.320;2023-04-06T04:16:25;99023.16;;;1.06;100.00
23446;BME280;11895;48.738;9.320;2023-04-06T04:18:53;99030.25;;;1.01;100.00
23446;BME280;11895;48.738;9.320;2023-04-06T04:21:21;99030.25;;;0.99;100.00
23446;BME280;11895;48.738;9.320;2023-04-06T04:23:48;99030.25;;;1.01;100.00
23446;BME280;11895;48.738;9.320;2023-04-06T04:26:17;99035.56;;;1.04;100.00
23446;BME280;11895;48.738;9.320;2023-04-06T04:28:46;99035.53;;;1.07;100.00
23446;BME280;11895;48.738;9.320;2023-04-06T04:31:15;99035.53;;;1.06;100.00
23446;BME280;11895;48.738;9.320;2023-04-06T04:33:48;99034.69;;;1.00;100.00
23446;BME280;11895;48.738;9.320;2023-04-06T04:36:23;99044.38;;;1.05;100.00
23446;BME280;11895;48.738;9.320;2023-04-06T04:38:54;99031.09;;;1.06;100.00
23446;BME280;11895;48.738;9.320;2023-04-06T04:41:23;99039.13;;;0.97;100.00
23446;BME280;11895;48.738;9.320;2023-04-06T04:43:51;99039.97;;;1.00;100.00
23446;BME280;11895;48.738;9.320;2023-04-06T04:46:22;99036.47;;;0.94;100.00
23446;BME280;11895;48.738;9.320;2023-04-06T04:48:52;99044.44;;;0.97;100.00
23446;BME280;11895;48.738;9.320;2023-04-06T04:51:19;99038.22;;;0.99;100.00
23446;BME280;11895;48.738;9.320;2023-04-06T04:54:22;99038.25;;;0.95;100.00
23446;BME280;11895;48.738;9.320;2023-04-06T04:56:51;99035.56;;;0.96;100.00
23446;BME280;11895;48.738;9.320;2023-04-06T04:59:25;99051.59;;;0.67;100.00
23446;BME280;11895;48.738;9.320;2023-04-06T05:01:59;99038.34;;;0.73;100.00
23446;BME280;11895;48.738;9.320;2023-04-06T05:04:40;99040.97;;;0.76;100.00
23446;BME280;11895;48.738;9.320;2023-04-06T05:07:11;99044.56;;;0.60;100.00
23446;BME280;11895;48.738;9.320;2023-04-06T05:09:41;99051.66;;;0.55;100.00
23446;BME280;11895;48.738;9.320;2023-04-06T05:12:09;99053.34;;;0.71;100.00
23446;BME280;11895;48.738;9.320;2023-04-06T05:14:47;99050.78;;;0.55;100.00
23446;BME280;11895;48.738;9.320;2023-04-06T05:17:17;99061.38;;;0.50;100.00
23446;BME280;11895;48.738;9.320;2023-04-06T05:19:45;99051.66;;;0.58;100.00
23446;BME280;11895;48.738;9.320;2023-04-06T05:22:17;99063.03;;;0.82;100.00
23446;BME280;11895;48.738;9.320;2023-04-06T05:24:50;99060.38;;;0.88;100.00
23446;BME280;11895;48.738;9.320;2023-04-06T05:27:17;99070.16;;;0.78;100.00
23446;BME280;11895;48.738;9.320;2023-04-06T05:29:46;99068.34;;;0.88;100.00
23446;BME280;11895;48.738;9.320;2023-04-06T05:32:20;99071.00;;;0.85;100.00
23446;BME280;11895;48.738;9.320;2023-04-06T05:34:50;99078.97;;;0.80;100.00
23446;BME280;11895;48.738;9.320;2023-04-06T05:37:18;99076.28;;;0.92;100.00
23446;BME280;11895;48.738;9.320;2023-04-06T05:39:46;99086.88;;;0.94;100.00
23446;BME280;11895;48.738;9.320;2023-04-06T05:42:14;99081.56;;;0.97;100.00
23446;BME280;11895;48.738;9.320;2023-04-06T05:44:56;99073.53;;;1.17;100.00
23446;BME280;11895;48.738;9.320;2023-04-06T05:47:23;99070.78;;;1.29;100.00
23446;BME280;11895;48.738;9.320;2023-04-06T05:50:00;99075.16;;;1.39;100.00
23446;BME280;11895;48.738;9.320;2023-04-06T05:52:33;99069.00;;;1.36;100.00
23446;BME280;11895;48.738;9.320;2023-04-06T05:55:02;99070.63;;;1.57;100.00
23446;BME280;11895;48.738;9.320;2023-04-06T05:57:31;99065.31;;;1.58;100.00
23446;BME280;11895;48.738;9.320;2023-04-06T05:59:59;99070.56;;;1.64;100.00
23446;BME280;11895;48.738;9.320;2023-04-06T06:02:38;99069.69;;;1.67;100.00
23446;BME280;11895;48.738;9.320;2023-04-06T06:05:11;99070.50;;;1.76;100.00
23446;BME280;11895;48.738;9.320;2023-04-06T06:07:41;99079.31;;;1.82;100.00
23446;BME280;11895;48.738;9.320;2023-04-06T06:10:10;99081.06;;;1.89;100.00
23446;BME280;11895;48.738;9.320;2023-04-06T06:12:38;99088.03;;;2.03;100.00
23446;BME280;11895;48.738;9.320;2023-04-06T06:15:07;99085.34;;;2.02;100.00
23446;BME280;11895;48.738;9.320;2023-04-06T06:17:39;99087.88;;;2.19;100.00
23446;BME280;11895;48.738;9.320;2023-04-06T06:20:08;99082.44;;;2.34;100.00
23446;BME280;11895;48.738;9.320;2023-04-06T06:22:36;99082.25;;;2.51;100.00
23446;BME280;11895;48.738;9.320;2023-04-06T06:25:05;99079.53;;;2.55;100.00
23446;BME280;11895;48.738;9.320;2023-04-06T06:27:33;99084.78;;;2.65;100.00
23446;BME280;11895;48.738;9.320;2023-04-06T06:30:02;99071.34;;;2.75;100.00
23446;BME280;11895;48.738;9.320;2023-04-06T06:32:32;99082.22;;;2.57;100.00
23446;BME280;11895;48.738;9.320;2023-04-06T06:35:00;99080.66;;;2.35;100.00
23446;BME280;11895;48.738;9.320;2023-04-06T06:37:28;99078.56;;;2.67;100.00
23446;BME280;11895;48.738;9.320;2023-04-06T06:39:57;99086.34;;;2.84;100.00
23446;BME280;11895;48.738;9.320;2023-04-06T06:42:25;99087.13;;;2.94;100.00
23446;BME280;11895;48.738;9.320;2023-04-06T06:45:07;99087.38;;;2.69;100.00
23446;BME280;11895;48.738;9.320;2023-04-06T06:47:35;99087.47;;;2.63;100.00
23446;BME280;11895;48.738;9.320;2023-04-06T06:50:03;99083.72;;;2.79;100.00
23446;BME280;11895;48.738;9.320;2023-04-06T06:52:32;99090.34;;;3.20;100.00
23446;BME280;11895;48.738;9.320;2023-04-06T06:55:00;99083.84;;;3.44;100.00
23446;BME280;11895;48.738;9.320;2023-04-06T06:57:28;99072.97;;;3.59;100.00
23446;BME280;11895;48.738;9.320;2023-04-06T06:59:56;99089.59;;;3.75;100.00
23446;BME280;11895;48.738;9.320;2023-04-06T07:02:24;99077.22;;;3.71;100.00
23446;BME280;11895;48.738;9.320;2023-04-06T07:04:52;99079.03;;;3.69;100.00
23446;BME280;11895;48.738;9.320;2023-04-06T07:07:20;99085.28;;;3.68;100.00
23446;BME280;11895;48.738;9.320;2023-04-06T07:09:47;99088.25;;;4.07;100.00
23446;BME280;11895;48.738;9.320;2023-04-06T07:12:15;99084.41;;;4.23;100.00
23446;BME280;11895;48.738;9.320;2023-04-06T07:14:43;99087.91;;;4.27;100.00
23446;BME280;11895;48.738;9.320;2023-04-06T07:17:12;99090.22;;;4.47;100.00
23446;BME280;11895;48.738;9.320;2023-04-06T07:19:40;99090.03;;;4.57;100.00
23446;BME280;11895;48.738;9.320;2023-04-06T07:22:08;99082.75;;;4.67;100.00
23446;BME280;11895;48.738;9.320;2023-04-06T07:24:36;99088.78;;;4.77;100.00
23446;BME280;11895;48.738;9.320;2023-04-06T07:27:04;99087.72;;;4.85;100.00
23446;BME280;11895;48.738;9.320;2023-04-06T07:29:32;99080.38;;;4.98;100.00
23446;BME280;11895;48.738;9.320;2023-04-06T07:32:00;99078.63;;;4.96;100.00
23446;BME280;11895;48.738;9.320;2023-04-06T07:34:28;99081.84;;;5.13;100.00
23446;BME280;11895;48.738;9.320;2023-04-06T07:36:56;99079.50;;;5.39;100.00
23446;BME280;11895;48.738;9.320;2023-04-06T07:39:24;99074.03;;;5.46;100.00
23446;BME280;11895;48.738;9.320;2023-04-06T07:41:55;99072.56;;;5.32;100.00
23446;BME280;11895;48.738;9.320;2023-04-06T07:44:23;99071.34;;;5.47;100.00
23446;BME280;11895;48.738;9.320;2023-04-06T07:46:51;99068.06;;;5.73;100.00
23446;BME280;11895;48.738;9.320;2023-04-06T07:49:21;99069.38;;;5.94;100.00
23446;BME280;11895;48.738;9.320;2023-04-06T07:51:50;99062.25;;;5.95;100.00
23446;BME280;11895;48.738;9.320;2023-04-06T07:54:18;99070.59;;;6.18;100.00
23446;BME280;11895;48.738;9.320;2023-04-06T07:56:46;99066.16;;;6.17;100.00
23446;BME280;11895;48.738;9.320;2023-04-06T07:59:14;99061.03;;;6.43;100.00
23446;BME280;11895;48.738;9.320;2023-04-06T08:01:42;99055.94;;;6.67;100.00
23446;BME280;11895;48.738;9.320;2023-04-06T08:04:09;99059.91;;;6.85;98.60
23446;BME280;11895;48.738;9.320;2023-04-06T08:06:38;99056.06;;;6.95;98.51
23446;BME280;11895;48.738;9.320;2023-04-06T08:09:05;99061.13;;;7.06;97.90
23446;BME280;11895;48.738;9.320;2023-04-06T08:11:33;99056.97;;;7.25;97.76
23446;BME280;11895;48.738;9.320;2023-04-06T08:14:01;99062.19;;;7.31;93.62
23446;BME280;11895;48.738;9.320;2023-04-06T08:16:29;99049.06;;;7.52;92.96
23446;BME280;11895;48.738;9.320;2023-04-06T08:18:57;99057.84;;;7.57;91.45
23446;BME280;11895;48.738;9.320;2023-04-06T08:21:24;99062.00;;;7.37;92.82
23446;BME280;11895;48.738;9.320;2023-04-06T08:23:52;99058.44;;;7.66;90.99
23446;BME280;11895;48.738;9.320;2023-04-06T08:26:20;99056.44;;;7.73;92.12
23446;BME280;11895;48.738;9.320;2023-04-06T08:28:48;99058.34;;;7.97;86.83
23446;BME280;11895;48.738;9.320;2023-04-06T08:31:16;99055.69;;;8.24;86.69
23446;BME280;11895;48.738;9.320;2023-04-06T08:33:44;99054.69;;;8.00;85.13
23446;BME280;11895;48.738;9.320;2023-04-06T08:36:13;99054.34;;;8.11;83.45
23446;BME280;11895;48.738;9.320;2023-04-06T08:38:42;99056.06;;;8.41;79.29
23446;BME280;11895;48.738;9.320;2023-04-06T08:41:11;99053.94;;;8.51;78.89
23446;BME280;11895;48.738;9.320;2023-04-06T08:44:02;99050.63;;;8.68;76.25
23446;BME280;11895;48.738;9.320;2023-04-06T08:46:31;99047.53;;;9.05;73.32
23446;BME280;11895;48.738;9.320;2023-04-06T08:49:01;99044.94;;;8.77;72.55
23446;BME280;11895;48.738;9.320;2023-04-06T08:51:30;99046.66;;;9.28;73.26
23446;BME280;11895;48.738;9.320;2023-04-06T08:53:59;99044.72;;;9.55;69.02
23446;BME280;11895;48.738;9.320;2023-04-06T08:56:28;99039.34;;;9.55;68.35
23446;BME280;11895;48.738;9.320;2023-04-06T08:58:57;99038.81;;;9.91;65.34
23446;BME280;11895;48.738;9.320;2023-04-06T09:01:27;99029.81;;;10.14;62.09
23446;BME280;11895;48.738;9.320;2023-04-06T09:03:59;99033.19;;;10.19;59.81
23446;BME280;11895;48.738;9.320;2023-04-06T09:06:29;99037.06;;;10.35;59.21
23446;BME280;11895;48.738;9.320;2023-04-06T09:08:58;99025.66;;;10.49;56.76
23446;BME280;11895;48.738;9.320;2023-04-06T09:11:26;99016.47;;;10.75;57.97
23446;BME280;11895;48.738;9.320;2023-04-06T09:13:55;99019.63;;;10.85;54.97
23446;BME280;11895;48.738;9.320;2023-04-06T09:16:24;99019.75;;;10.81;54.60
23446;BME280;11895;48.738;9.320;2023-04-06T09:18:52;99014.97;;;10.68;53.60
23446;BME280;11895;48.738;9.320;2023-04-06T09:21:20;99009.72;;;10.85;53.16
23446;BME280;11895;48.738;9.320;2023-04-06T09:24:02;99011.47;;;10.45;51.33
23446;BME280;11895;48.738;9.320;2023-04-06T09:26:31;99013.56;;;11.00;52.62
23446;BME280;11895;48.738;9.320;2023-04-06T09:29:01;99011.75;;;10.80;52.08
23446;BME280;11895;48.738;9.320;2023-04-06T09:31:31;99013.91;;;10.72;51.25
23446;BME280;11895;48.738;9.320;2023-04-06T09:34:02;99001.31;;;10.93;49.55
23446;BME280;11895;48.738;9.320;2023-04-06T09:36:35;99004.19;;;11.09;45.04
23446;BME280;11895;48.738;9.320;2023-04-06T09:39:09;99008.22;;;11.19;45.95
23446;BME280;11895;48.738;9.320;2023-04-06T09:41:37;99006.63;;;11.71;46.08
23446;BME280;11895;48.738;9.320;2023-04-06T09:44:14;99004.88;;;11.51;42.20
23446;BME280;11895;48.738;9.320;2023-04-06T09:46:43;98998.56;;;11.90;42.66
23446;BME280;11895;48.738;9.320;2023-04-06T09:49:31;98996.53;;;12.13;41.36
23446;BME280;11895;48.738;9.320;2023-04-06T09:52:04;98990.88;;;12.17;42.54
23446;BME280;11895;48.738;9.320;2023-04-06T09:54:35;98982.34;;;12.61;42.26
23446;BME280;11895;48.738;9.320;2023-04-06T10:00:17;98984.50;;;13.05;40.09
23446;BME280;11895;48.738;9.320;2023-04-06T10:03:08;98988.22;;;13.20;38.94
23446;BME280;11895;48.738;9.320;2023-04-06T10:05:56;98983.50;;;13.41;36.54
23446;BME280;11895;48.738;9.320;2023-04-06T10:08:28;98985.03;;;13.29;34.24
23446;BME280;11895;48.738;9.320;2023-04-06T10:10:59;98979.31;;;13.18;33.41
23446;BME280;11895;48.738;9.320;2023-04-06T10:13:28;98985.84;;;13.13;34.23
23446;BME280;11895;48.738;9.320;2023-04-06T10:15:56;98989.81;;;13.57;32.72
23446;BME280;11895;48.738;9.320;2023-04-06T10:18:25;98985.00;;;13.78;32.20
23446;BME280;11895;48.738;9.320;2023-04-06T10:21:01;98976.50;;;14.15;31.84
23446;BME280;11895;48.738;9.320;2023-04-06T10:26:04;98978.22;;;14.48;32.16
23446;BME280;11895;48.738;9.320;2023-04-06T10:28:34;98985.38;;;14.49;31.82
23446;BME280;11895;48.738;9.320;2023-04-06T10:31:05;98976.84;;;14.41;31.90
23446;BME280;11895;48.738;9.320;2023-04-06T10:33:34;98972.94;;;14.15;32.47
23446;BME280;11895;48.738;9.320;2023-04-06T10:36:32;98971.84;;;14.49;32.85
23446;BME280;11895;48.738;9.320;2023-04-06T10:39:05;98967.25;;;14.65;32.15
23446;BME280;11895;48.738;9.320;2023-04-06T10:41:44;98968.63;;;14.87;32.52
23446;BME280;11895;48.738;9.320;2023-04-06T10:44:21;98968.78;;;14.55;31.56
23446;BME280;11895;48.738;9.320;2023-04-06T10:46:57;98971.22;;;14.44;31.59
23446;BME280;11895;48.738;9.320;2023-04-06T10:49:28;98965.34;;;14.82;31.43
23446;BME280;11895;48.738;9.320;2023-04-06T10:51:56;98959.47;;;14.59;30.20
23446;BME280;11895;48.738;9.320;2023-04-06T10:54:25;98958.31;;;14.33;31.38
23446;BME280;11895;48.738;9.320;2023-04-06T10:56:54;98952.72;;;14.36;30.75
23446;BME280;11895;48.738;9.320;2023-04-06T10:59:24;98948.13;;;14.53;29.95
23446;BME280;11895;48.738;9.320;2023-04-06T11:01:52;98947.97;;;14.40;31.73
23446;BME280;11895;48.738;9.320;2023-04-06T11:04:22;98954.91;;;14.30;31.36
23446;BME280;11895;48.738;9.320;2023-04-06T11:06:51;98950.44;;;14.29;30.15
23446;BME280;11895;48.738;9.320;2023-04-06T11:09:29;98960.47;;;14.12;29.65
23446;BME280;11895;48.738;9.320;2023-04-06T11:11:59;98949.41;;;14.31;30.38
23446;BME280;11895;48.738;9.320;2023-04-06T11:14:28;98945.25;;;14.40;30.69
23446;BME280;11895;48.738;9.320;2023-04-06T11:16:56;98944.22;;;14.87;30.72
23446;BME280;11895;48.738;9.320;2023-04-06T11:19:24;98948.28;;;15.51;31.01
23446;BME280;11895;48.738;9.320;2023-04-06T11:21:52;98947.34;;;15.66;29.43
23446;BME280;11895;48.738;9.320;2023-04-06T11:24:22;98947.53;;;15.35;29.27
23446;BME280;11895;48.738;9.320;2023-04-06T11:26:55;98939.19;;;15.66;29.23
23446;BME280;11895;48.738;9.320;2023-04-06T11:29:27;98939.56;;;15.46;27.90
23446;BME280;11895;48.738;9.320;2023-04-06T11:32:02;98926.56;;;16.07;28.74
23446;BME280;11895;48.738;9.320;2023-04-06T11:34:37;98929.16;;;16.48;28.22
23446;BME280;11895;48.738;9.320;2023-04-06T11:37:11;98926.25;;;16.24;26.69
23446;BME280;11895;48.738;9.320;2023-04-06T11:39:50;98919.19;;;16.61;25.85
23446;BME280;11895;48.738;9.320;2023-04-06T11:42:27;98911.16;;;17.11;25.34
23446;BME280;11895;48.738;9.320;2023-04-06T11:44:58;98904.16;;;17.45;25.30
23446;BME280;11895;48.738;9.320;2023-04-06T11:50:12;98901.28;;;17.59;23.83
23446;BME280;11895;48.738;9.320;2023-04-06T11:52:41;98905.47;;;17.89;24.13
23446;BME280;11895;48.738;9.320;2023-04-06T11:55:18;98904.84;;;18.09;23.96
23446;BME280;11895;48.738;9.320;2023-04-06T11:57:48;98895.94;;;18.78;24.43
23446;BME280;11895;48.738;9.320;2023-04-06T12:00:17;98898.84;;;19.21;23.83
23446;BME280;11895;48.738;9.320;2023-04-06T12:02:47;98902.19;;;19.58;22.61
23446;BME280;11895;48.738;9.320;2023-04-06T12:05:16;98889.16;;;20.05;22.68
23446;BME280;11895;48.738;9.320;2023-04-06T12:07:44;98895.03;;;20.33;22.26
23446;BME280;11895;48.738;9.320;2023-04-06T12:10:13;98896.50;;;20.69;21.29
23446;BME280;11895;48.738;9.320;2023-04-06T12:12:41;98896.25;;;20.51;21.03
23446;BME280;11895;48.738;9.320;2023-04-06T12:15:10;98894.97;;;19.80;23.12
23446;BME280;11895;48.738;9.320;2023-04-06T12:17:37;98894.09;;;19.57;22.09
23446;BME280;11895;48.738;9.320;2023-04-06T12:20:06;98894.63;;;20.05;20.80
23446;BME280;11895;48.738;9.320;2023-04-06T12:22:51;98883.41;;;21.45;20.22
23446;BME280;11895;48.738;9.320;2023-04-06T12:25:19;98889.81;;;22.92;19.62
23446;BME280;11895;48.738;9.320;2023-04-06T12:27:47;98885.19;;;22.83;18.77
23446;BME280;11895;48.738;9.320;2023-04-06T12:30:15;98883.69;;;23.08;18.42
23446;BME280;11895;48.738;9.320;2023-04-06T12:32:43;98871.88;;;23.72;17.55
23446;BME280;11895;48.738;9.320;2023-04-06T12:35:11;98871.03;;;24.53;18.48
23446;BME280;11895;48.738;9.320;2023-04-06T12:37:40;98861.84;;;25.74;17.18
23446;BME280;11895;48.738;9.320;2023-04-06T12:40:08;98870.00;;;27.00;20.47
23446;BME280;11895;48.738;9.320;2023-04-06T12:42:39;98862.00;;;27.29;16.16
23446;BME280;11895;48.738;9.320;2023-04-06T12:45:09;98859.81;;;27.64;14.97
23446;BME280;11895;48.738;9.320;2023-04-06T12:47:37;98853.41;;;28.11;14.38
23446;BME280;11895;48.738;9.320;2023-04-06T12:50:06;98858.72;;;27.42;14.90
23446;BME280;11895;48.738;9.320;2023-04-06T12:52:34;98859.94;;;27.07;14.84
23446;BME280;11895;48.738;9.320;2023-04-06T12:55:03;98854.06;;;26.12;15.46
23446;BME280;11895;48.738;9.320;2023-04-06T12:57:32;98858.34;;;25.72;15.31
23446;BME280;11895;48.738;9.320;2023-04-06T13:00:01;98856.09;;;25.25;14.42
23446;BME280;11895;48.738;9.320;2023-04-06T13:02:30;98855.94;;;24.57;15.60
23446;BME280;11895;48.738;9.320;2023-04-06T13:04:58;98858.16;;;24.79;15.36
23446;BME280;11895;48.738;9.320;2023-04-06T13:07:32;98856.72;;;25.45;15.84
23446;BME280;11895;48.738;9.320;2023-04-06T13:10:00;98846.16;;;24.45;15.45
23446;BME280;11895;48.738;9.320;2023-04-06T13:12:28;98847.38;;;26.47;14.65
23446;BME280;11895;48.738;9.320;2023-04-06T13:14:57;98847.72;;;24.11;15.05
23446;BME280;11895;48.738;9.320;2023-04-06T13:17:26;98835.44;;;25.29;15.51
23446;BME280;11895;48.738;9.320;2023-04-06T13:19:54;98836.88;;;26.51;14.48
23446;BME280;11895;48.738;9.320;2023-04-06T13:22:22;98823.94;;;28.64;14.28
23446;BME280;11895;48.738;9.320;2023-04-06T13:24:50;98832.13;;;29.62;13.66
23446;BME280;11895;48.738;9.320;2023-04-06T13:27:18;98841.66;;;30.62;13.40